首页
METAR-TAF:

METAR-TAF

机场 :

内塔吉·苏巴斯·钱德拉·鲍斯国际机场

加尔各答, 印度

纬度: 22-39N, 经度: 088-27E, 海拔: 4米

当前天气观测

该预报发布于29分钟前的02:00 UTC
风速3节,风向西转西北
温度 30°C
湿度 84%
气压 997 hPa
能見度: 3200
少量云层高于2000英尺
多云层高于10000英尺

METAR: VECC 190200Z 29003KT 3200 HZ FEW020 BKN100 30/27 Q0997 NOSIG

时间: 07:59 (02:29 UTC)

预报

该预报发布于3小时和29分钟前的23:00 UTC
预报有效从19日的 00点(UTC)到 20日的 06点(UTC)
风速5节,风向
能見度: 2800
散云层高于1800英尺
多云层高于10000英尺
小雨, 霾
成为
从 19日的 02点(UTC)到 19日的 04点(UTC)
风速5节,风向东转东南
能見度: 3500
小雨, 霾
短暂存在
从 19日的 06点(UTC)到 19日的 10点(UTC)
能見度: 1500
散云层高于1500英尺
少量云层高于2500英尺, 积雨云.
多云层高于9000英尺
雷暴, 雨
成为
从 19日的 18点(UTC)到 19日的 20点(UTC)
风速5节,风向
能見度: 2800
小雨, 霾
成为
从 20日的 02点(UTC)到 20日的 04点(UTC)
能見度: 3500
小雨, 霾

TAF: VECC 182300Z 1900/2006 18005KT 2800 -RA HZ SCT018 BKN100 BECMG 1902/1904 12005KT 3500 -RA HZ TEMPO 1906/1910 1500 TSRA SCT015 FEW025CB BKN090 BECMG 1918/1920 18005KT 2800 -RA HZ BECMG 2002/2004 3500 -RA HZ

超过4000个机场的气象观测和天气预报(METAR&TAF报告)。

可查询的气象台以黄色和红色小点在地图上表示。

将鼠标移到小点上方,可查看气象台名称。

然后点击查看天气观测和预报。

如需切换地图:点击带黑十字的绿色按钮放大地图;点击带横线的绿色按钮缩小地图;或者点击绿色箭头查看邻近地区的地图。


METAR-TAF: